Lapel, Indiana
Current Conditions -  °F | °C
As of 4:15 AM on Thursday 27 Nov 2014 (Local Time) from KMQJ Reporting Station
Broken Clouds Broken Clouds  
Wind Chill: 20°   Ceiling: 2400
Heat Index: 28°   Visibility: 10mi
Dew Point: 16°   Wind: 9mph
Humidity: 59%   Direction: 330°NNW
Pressure: 30.16"   Gusts: NA
Location:  40.07°N, 85.85°W
Report Text: KMQJ 270915Z AUTO 33008KT 10SM BKN024 M02/M09 A3016 RMK AO1
Loading
Personal Weather Stations






























Interactive Weather Map New forecast layout! Learn more

10-Day Weather Forecast

Advertisements
Track Severe Weather on mobile